sensor_id;sensor_type;location;lat;lon;timestamp;pressure;altitude;pressure_sealevel;temperature;humidity
78857;BME280;68207;50.078;19.936;2023-04-25T00:00:23;97826.23;;;12.40;78.21
78857;BME280;68207;50.078;19.936;2023-04-25T00:02:48;97827.95;;;12.42;78.09
78857;BME280;68207;50.078;19.936;2023-04-25T00:05:14;97831.64;;;12.48;78.13
78857;BME280;68207;50.078;19.936;2023-04-25T00:07:42;97836.41;;;12.49;77.62
78857;BME280;68207;50.078;19.936;2023-04-25T00:10:08;97840.36;;;12.45;76.66
78857;BME280;68207;50.078;19.936;2023-04-25T00:12:34;97841.77;;;12.42;75.97
78857;BME280;68207;50.078;19.936;2023-04-25T00:15:01;97835.71;;;12.35;75.23
78857;BME280;68207;50.078;19.936;2023-04-25T00:17:26;97836.59;;;12.27;74.98
78857;BME280;68207;50.078;19.936;2023-04-25T00:19:52;97832.58;;;12.21;74.71
78857;BME280;68207;50.078;19.936;2023-04-25T00:22:17;97834.10;;;12.18;74.75
78857;BME280;68207;50.078;19.936;2023-04-25T00:24:43;97835.13;;;12.14;74.54
78857;BME280;68207;50.078;19.936;2023-04-25T00:27:08;97833.14;;;12.09;74.55
78857;BME280;68207;50.078;19.936;2023-04-25T00:29:33;97837.81;;;12.05;74.82
78857;BME280;68207;50.078;19.936;2023-04-25T00:31:59;97844.65;;;11.99;74.70
78857;BME280;68207;50.078;19.936;2023-04-25T00:34:25;97838.63;;;11.91;74.66
78857;BME280;68207;50.078;19.936;2023-04-25T00:36:50;97836.05;;;11.86;74.95
78857;BME280;68207;50.078;19.936;2023-04-25T00:39:16;97834.56;;;11.84;74.82
78857;BME280;68207;50.078;19.936;2023-04-25T00:41:41;97834.85;;;11.81;74.83
78857;BME280;68207;50.078;19.936;2023-04-25T00:44:08;97843.23;;;11.78;74.94
78857;BME280;68207;50.078;19.936;2023-04-25T00:46:36;97841.35;;;11.74;74.83
78857;BME280;68207;50.078;19.936;2023-04-25T00:49:02;97843.78;;;11.70;75.14
78857;BME280;68207;50.078;19.936;2023-04-25T00:51:27;97846.23;;;11.67;74.90
78857;BME280;68207;50.078;19.936;2023-04-25T00:53:53;97848.73;;;11.66;75.11
78857;BME280;68207;50.078;19.936;2023-04-25T00:56:19;97849.14;;;11.64;75.44
78857;BME280;68207;50.078;19.936;2023-04-25T00:58:45;97852.87;;;11.62;75.40
78857;BME280;68207;50.078;19.936;2023-04-25T01:01:11;97855.02;;;11.59;75.29
78857;BME280;68207;50.078;19.936;2023-04-25T01:03:38;97854.05;;;11.54;75.56
78857;BME280;68207;50.078;19.936;2023-04-25T01:06:11;97858.99;;;11.52;75.60
78857;BME280;68207;50.078;19.936;2023-04-25T01:08:38;97856.46;;;11.50;75.55
78857;BME280;68207;50.078;19.936;2023-04-25T01:11:05;97857.65;;;11.49;75.88
78857;BME280;68207;50.078;19.936;2023-04-25T01:13:30;97860.52;;;11.47;75.70
78857;BME280;68207;50.078;19.936;2023-04-25T01:15:58;97856.63;;;11.44;76.10
78857;BME280;68207;50.078;19.936;2023-04-25T01:18:23;97858.47;;;11.38;76.27
78857;BME280;68207;50.078;19.936;2023-04-25T01:20:51;97860.09;;;11.34;76.29
78857;BME280;68207;50.078;19.936;2023-04-25T01:23:16;97862.59;;;11.33;76.39
78857;BME280;68207;50.078;19.936;2023-04-25T01:25:42;97866.98;;;11.30;76.52
78857;BME280;68207;50.078;19.936;2023-04-25T01:28:07;97867.14;;;11.25;76.87
78857;BME280;68207;50.078;19.936;2023-04-25T01:30:33;97874.53;;;11.20;77.21
78857;BME280;68207;50.078;19.936;2023-04-25T01:32:58;97869.02;;;11.14;77.35
78857;BME280;68207;50.078;19.936;2023-04-25T01:35:24;97869.62;;;11.12;77.57
78857;BME280;68207;50.078;19.936;2023-04-25T01:37:51;97867.64;;;11.14;77.19
78857;BME280;68207;50.078;19.936;2023-04-25T01:40:16;97868.69;;;11.16;77.26
78857;BME280;68207;50.078;19.936;2023-04-25T01:42:44;97867.21;;;11.13;77.36
78857;BME280;68207;50.078;19.936;2023-04-25T01:45:11;97867.05;;;11.13;77.31
78857;BME280;68207;50.078;19.936;2023-04-25T01:47:37;97868.85;;;11.13;77.50
78857;BME280;68207;50.078;19.936;2023-04-25T01:50:06;97867.22;;;11.13;77.31
78857;BME280;68207;50.078;19.936;2023-04-25T01:52:32;97870.98;;;11.14;77.28
78857;BME280;68207;50.078;19.936;2023-04-25T01:54:59;97870.85;;;11.10;77.32
78857;BME280;68207;50.078;19.936;2023-04-25T01:57:26;97874.77;;;11.07;77.22
78857;BME280;68207;50.078;19.936;2023-04-25T01:59:55;97879.09;;;11.06;77.59
78857;BME280;68207;50.078;19.936;2023-04-25T02:02:23;97878.97;;;11.06;77.45
78857;BME280;68207;50.078;19.936;2023-04-25T02:04:48;97877.70;;;11.07;77.31
78857;BME280;68207;50.078;19.936;2023-04-25T02:07:14;97883.00;;;11.09;77.36
78857;BME280;68207;50.078;19.936;2023-04-25T02:09:39;97882.27;;;11.09;77.58
78857;BME280;68207;50.078;19.936;2023-04-25T02:12:04;97883.85;;;11.02;77.41
78857;BME280;68207;50.078;19.936;2023-04-25T02:14:30;97881.48;;;10.94;77.39
78857;BME280;68207;50.078;19.936;2023-04-25T02:16:55;97880.23;;;10.89;77.36
78857;BME280;68207;50.078;19.936;2023-04-25T02:19:20;97881.41;;;10.89;77.53
78857;BME280;68207;50.078;19.936;2023-04-25T02:21:45;97884.16;;;10.91;77.57
78857;BME280;68207;50.078;19.936;2023-04-25T02:24:11;97886.80;;;10.91;77.41
78857;BME280;68207;50.078;19.936;2023-04-25T02:26:36;97888.36;;;10.92;77.40
78857;BME280;68207;50.078;19.936;2023-04-25T02:29:01;97881.58;;;10.91;77.48
78857;BME280;68207;50.078;19.936;2023-04-25T02:31:27;97884.80;;;10.93;77.67
78857;BME280;68207;50.078;19.936;2023-04-25T02:33:52;97879.80;;;10.93;77.43
78857;BME280;68207;50.078;19.936;2023-04-25T02:36:17;97883.84;;;10.94;77.45
78857;BME280;68207;50.078;19.936;2023-04-25T02:38:42;97880.70;;;10.95;77.52
78857;BME280;68207;50.078;19.936;2023-04-25T02:41:08;97876.42;;;10.95;77.45
78857;BME280;68207;50.078;19.936;2023-04-25T02:43:33;97878.16;;;10.94;77.30
78857;BME280;68207;50.078;19.936;2023-04-25T02:45:58;97878.84;;;10.96;77.31
78857;BME280;68207;50.078;19.936;2023-04-25T02:48:23;97882.63;;;10.99;77.09
78857;BME280;68207;50.078;19.936;2023-04-25T02:50:49;97884.70;;;10.99;77.19
78857;BME280;68207;50.078;19.936;2023-04-25T02:53:14;97880.95;;;10.93;77.08
78857;BME280;68207;50.078;19.936;2023-04-25T02:55:40;97880.52;;;10.87;77.35
78857;BME280;68207;50.078;19.936;2023-04-25T02:58:05;97882.71;;;10.81;77.17
78857;BME280;68207;50.078;19.936;2023-04-25T03:00:30;97879.33;;;10.81;77.49
78857;BME280;68207;50.078;19.936;2023-04-25T03:02:56;97878.86;;;10.78;77.58
78857;BME280;68207;50.078;19.936;2023-04-25T03:05:21;97875.88;;;10.75;77.67
78857;BME280;68207;50.078;19.936;2023-04-25T03:07:46;97874.41;;;10.73;78.03
78857;BME280;68207;50.078;19.936;2023-04-25T03:10:12;97871.41;;;10.69;78.02
78857;BME280;68207;50.078;19.936;2023-04-25T03:12:37;97871.63;;;10.68;78.20
78857;BME280;68207;50.078;19.936;2023-04-25T03:15:03;97869.96;;;10.68;78.22
78857;BME280;68207;50.078;19.936;2023-04-25T03:17:29;97872.52;;;10.68;78.66
78857;BME280;68207;50.078;19.936;2023-04-25T03:19:54;97876.00;;;10.65;78.74
78857;BME280;68207;50.078;19.936;2023-04-25T03:22:20;97874.77;;;10.61;78.87
78857;BME280;68207;50.078;19.936;2023-04-25T03:24:45;97872.69;;;10.60;78.75
78857;BME280;68207;50.078;19.936;2023-04-25T03:27:10;97873.06;;;10.62;78.95
78857;BME280;68207;50.078;19.936;2023-04-25T03:29:36;97876.98;;;10.64;78.67
78857;BME280;68207;50.078;19.936;2023-04-25T03:32:01;97882.69;;;10.65;78.66
78857;BME280;68207;50.078;19.936;2023-04-25T03:34:26;97888.36;;;10.65;78.71
78857;BME280;68207;50.078;19.936;2023-04-25T03:36:52;97894.59;;;10.62;78.69
78857;BME280;68207;50.078;19.936;2023-04-25T03:39:17;97892.25;;;10.61;78.71
78857;BME280;68207;50.078;19.936;2023-04-25T03:41:42;97891.30;;;10.62;78.17
78857;BME280;68207;50.078;19.936;2023-04-25T03:44:08;97895.77;;;10.62;78.06
78857;BME280;68207;50.078;19.936;2023-04-25T03:46:33;97898.96;;;10.62;78.07
78857;BME280;68207;50.078;19.936;2023-04-25T03:48:58;97898.49;;;10.61;78.21
78857;BME280;68207;50.078;19.936;2023-04-25T03:51:24;97900.67;;;10.59;78.20
78857;BME280;68207;50.078;19.936;2023-04-25T03:53:50;97901.60;;;10.60;78.18
78857;BME280;68207;50.078;19.936;2023-04-25T03:56:15;97905.13;;;10.60;78.06
78857;BME280;68207;50.078;19.936;2023-04-25T03:58:41;97907.34;;;10.59;77.89
78857;BME280;68207;50.078;19.936;2023-04-25T04:01:06;97907.33;;;10.56;78.23
78857;BME280;68207;50.078;19.936;2023-04-25T04:03:35;97915.55;;;10.52;77.94
78857;BME280;68207;50.078;19.936;2023-04-25T04:06:04;97918.81;;;10.46;78.15
78857;BME280;68207;50.078;19.936;2023-04-25T04:08:30;97923.40;;;10.42;77.96
78857;BME280;68207;50.078;19.936;2023-04-25T04:10:57;97927.52;;;10.40;77.80
78857;BME280;68207;50.078;19.936;2023-04-25T04:13:25;97929.85;;;10.35;77.96
78857;BME280;68207;50.078;19.936;2023-04-25T04:15:50;97932.41;;;10.32;77.97
78857;BME280;68207;50.078;19.936;2023-04-25T04:18:15;97933.88;;;10.28;77.74
78857;BME280;68207;50.078;19.936;2023-04-25T04:20:41;97939.33;;;10.26;77.87
78857;BME280;68207;50.078;19.936;2023-04-25T04:23:06;97946.58;;;10.26;77.68
78857;BME280;68207;50.078;19.936;2023-04-25T04:25:31;97946.52;;;10.23;77.72
78857;BME280;68207;50.078;19.936;2023-04-25T04:27:56;97949.71;;;10.18;77.54
78857;BME280;68207;50.078;19.936;2023-04-25T04:30:23;97953.77;;;10.14;77.43
78857;BME280;68207;50.078;19.936;2023-04-25T04:32:55;97952.73;;;10.11;77.36
78857;BME280;68207;50.078;19.936;2023-04-25T04:35:20;97953.63;;;10.12;77.34
78857;BME280;68207;50.078;19.936;2023-04-25T04:37:46;97956.51;;;10.14;77.36
78857;BME280;68207;50.078;19.936;2023-04-25T04:40:11;97958.60;;;10.14;77.43
78857;BME280;68207;50.078;19.936;2023-04-25T04:42:36;97958.42;;;10.17;77.33
78857;BME280;68207;50.078;19.936;2023-04-25T04:45:02;97962.77;;;10.17;77.39
78857;BME280;68207;50.078;19.936;2023-04-25T04:47:28;97965.52;;;10.14;77.25
78857;BME280;68207;50.078;19.936;2023-04-25T04:49:56;97965.95;;;10.16;77.38
78857;BME280;68207;50.078;19.936;2023-04-25T04:52:21;97966.10;;;10.16;77.20
78857;BME280;68207;50.078;19.936;2023-04-25T04:54:47;97974.30;;;10.15;77.16
78857;BME280;68207;50.078;19.936;2023-04-25T04:57:12;97971.23;;;10.11;77.17
78857;BME280;68207;50.078;19.936;2023-04-25T04:59:37;97969.80;;;10.08;77.46
78857;BME280;68207;50.078;19.936;2023-04-25T05:02:03;97968.79;;;10.05;77.59
78857;BME280;68207;50.078;19.936;2023-04-25T05:04:28;97971.39;;;10.04;77.71
78857;BME280;68207;50.078;19.936;2023-04-25T05:06:53;97975.04;;;10.07;77.78
78857;BME280;68207;50.078;19.936;2023-04-25T05:09:19;97969.58;;;10.07;77.35
78857;BME280;68207;50.078;19.936;2023-04-25T05:11:44;97974.05;;;10.06;77.39
78857;BME280;68207;50.078;19.936;2023-04-25T05:14:09;97977.48;;;10.06;77.19
78857;BME280;68207;50.078;19.936;2023-04-25T05:16:35;97980.11;;;10.05;77.08
78857;BME280;68207;50.078;19.936;2023-04-25T05:19:00;97979.96;;;10.03;76.82
78857;BME280;68207;50.078;19.936;2023-04-25T05:21:26;97981.72;;;10.04;76.64
78857;BME280;68207;50.078;19.936;2023-04-25T05:23:53;97984.36;;;10.03;76.99
78857;BME280;68207;50.078;19.936;2023-04-25T05:26:18;97981.30;;;10.06;76.98
78857;BME280;68207;50.078;19.936;2023-04-25T05:28:43;97984.48;;;10.05;76.84
78857;BME280;68207;50.078;19.936;2023-04-25T05:31:10;97986.86;;;10.05;76.23
78857;BME280;68207;50.078;19.936;2023-04-25T05:33:35;97991.58;;;10.04;75.40
78857;BME280;68207;50.078;19.936;2023-04-25T05:36:00;97992.87;;;10.00;75.21
78857;BME280;68207;50.078;19.936;2023-04-25T05:38:26;97997.52;;;9.98;75.39
78857;BME280;68207;50.078;19.936;2023-04-25T05:40:51;97999.63;;;9.99;75.21
78857;BME280;68207;50.078;19.936;2023-04-25T05:43:17;97999.75;;;9.95;74.91
78857;BME280;68207;50.078;19.936;2023-04-25T05:45:42;98006.39;;;9.91;74.87
78857;BME280;68207;50.078;19.936;2023-04-25T05:48:08;98009.13;;;9.86;74.88
78857;BME280;68207;50.078;19.936;2023-04-25T05:50:33;98012.64;;;9.88;74.98
78857;BME280;68207;50.078;19.936;2023-04-25T05:52:58;98014.36;;;9.88;74.65
78857;BME280;68207;50.078;19.936;2023-04-25T05:55:23;98012.95;;;9.87;74.63
78857;BME280;68207;50.078;19.936;2023-04-25T05:57:49;98015.44;;;9.87;74.50
78857;BME280;68207;50.078;19.936;2023-04-25T06:00:15;98016.11;;;9.84;74.42
78857;BME280;68207;50.078;19.936;2023-04-25T06:02:41;98021.34;;;9.82;74.51
78857;BME280;68207;50.078;19.936;2023-04-25T06:05:07;98027.75;;;9.80;74.41
78857;BME280;68207;50.078;19.936;2023-04-25T06:07:32;98031.54;;;9.79;74.61
78857;BME280;68207;50.078;19.936;2023-04-25T06:09:58;98032.31;;;9.79;74.57
78857;BME280;68207;50.078;19.936;2023-04-25T06:12:24;98034.63;;;9.80;74.69
78857;BME280;68207;50.078;19.936;2023-04-25T06:14:49;98030.85;;;9.81;74.81
78857;BME280;68207;50.078;19.936;2023-04-25T06:17:15;98033.92;;;9.77;74.28
78857;BME280;68207;50.078;19.936;2023-04-25T06:19:40;98040.77;;;9.74;74.45
78857;BME280;68207;50.078;19.936;2023-04-25T06:22:06;98037.46;;;9.70;74.62
78857;BME280;68207;50.078;19.936;2023-04-25T06:24:32;98040.67;;;9.73;74.85
78857;BME280;68207;50.078;19.936;2023-04-25T06:26:57;98044.02;;;9.74;74.69
78857;BME280;68207;50.078;19.936;2023-04-25T06:29:22;98037.19;;;9.75;74.89
78857;BME280;68207;50.078;19.936;2023-04-25T06:31:48;98040.73;;;9.77;74.37
78857;BME280;68207;50.078;19.936;2023-04-25T06:34:13;98042.09;;;9.77;74.74
78857;BME280;68207;50.078;19.936;2023-04-25T06:36:38;98045.66;;;9.78;74.84
78857;BME280;68207;50.078;19.936;2023-04-25T06:39:04;98044.65;;;9.79;74.97
78857;BME280;68207;50.078;19.936;2023-04-25T06:41:29;98044.05;;;9.85;74.83
78857;BME280;68207;50.078;19.936;2023-04-25T06:43:55;98041.14;;;9.93;74.80
78857;BME280;68207;50.078;19.936;2023-04-25T06:46:20;98041.30;;;10.00;74.51
78857;BME280;68207;50.078;19.936;2023-04-25T06:48:46;98042.60;;;10.05;74.31
78857;BME280;68207;50.078;19.936;2023-04-25T06:51:11;98044.55;;;10.12;74.26
78857;BME280;68207;50.078;19.936;2023-04-25T06:53:38;98042.00;;;10.19;74.50
78857;BME280;68207;50.078;19.936;2023-04-25T06:56:03;98040.50;;;10.25;74.40
78857;BME280;68207;50.078;19.936;2023-04-25T06:58:29;98034.31;;;10.28;73.80
78857;BME280;68207;50.078;19.936;2023-04-25T07:00:54;98036.56;;;10.33;73.47
78857;BME280;68207;50.078;19.936;2023-04-25T07:03:20;98039.16;;;10.37;73.03
78857;BME280;68207;50.078;19.936;2023-04-25T07:05:45;98036.33;;;10.41;72.99
78857;BME280;68207;50.078;19.936;2023-04-25T07:08:11;98038.39;;;10.43;73.03
78857;BME280;68207;50.078;19.936;2023-04-25T07:10:36;98036.93;;;10.46;73.03
78857;BME280;68207;50.078;19.936;2023-04-25T07:13:01;98040.10;;;10.50;72.66
78857;BME280;68207;50.078;19.936;2023-04-25T07:15:26;98038.70;;;10.55;72.56
78857;BME280;68207;50.078;19.936;2023-04-25T07:17:52;98036.64;;;10.65;72.57
78857;BME280;68207;50.078;19.936;2023-04-25T07:20:17;98038.23;;;10.74;72.41
78857;BME280;68207;50.078;19.936;2023-04-25T07:22:42;98036.23;;;10.79;71.90
78857;BME280;68207;50.078;19.936;2023-04-25T07:25:08;98037.35;;;10.81;71.36
78857;BME280;68207;50.078;19.936;2023-04-25T07:27:34;98039.64;;;10.84;71.31
78857;BME280;68207;50.078;19.936;2023-04-25T07:29:59;98040.06;;;10.85;71.53
78857;BME280;68207;50.078;19.936;2023-04-25T07:32:25;98043.32;;;10.92;71.52
78857;BME280;68207;50.078;19.936;2023-04-25T07:34:50;98042.95;;;10.99;71.48
78857;BME280;68207;50.078;19.936;2023-04-25T07:37:16;98043.77;;;11.01;70.59
78857;BME280;68207;50.078;19.936;2023-04-25T07:39:43;98045.86;;;11.07;70.71
78857;BME280;68207;50.078;19.936;2023-04-25T07:42:10;98045.65;;;11.14;70.69
78857;BME280;68207;50.078;19.936;2023-04-25T07:44:36;98045.96;;;11.21;70.52
78857;BME280;68207;50.078;19.936;2023-04-25T07:47:09;98049.58;;;11.24;69.30
78857;BME280;68207;50.078;19.936;2023-04-25T07:49:35;98047.33;;;11.25;69.31
78857;BME280;68207;50.078;19.936;2023-04-25T07:52:00;98053.84;;;11.28;69.28
78857;BME280;68207;50.078;19.936;2023-04-25T07:54:26;98050.29;;;11.31;68.38
78857;BME280;68207;50.078;19.936;2023-04-25T07:56:51;98051.22;;;11.31;67.93
78857;BME280;68207;50.078;19.936;2023-04-25T07:59:17;98047.55;;;11.30;67.66
78857;BME280;68207;50.078;19.936;2023-04-25T08:01:42;98048.81;;;11.30;67.64
78857;BME280;68207;50.078;19.936;2023-04-25T08:04:07;98044.35;;;11.33;67.81
78857;BME280;68207;50.078;19.936;2023-04-25T08:06:32;98046.32;;;11.37;67.41
78857;BME280;68207;50.078;19.936;2023-04-25T08:08:58;98046.02;;;11.39;67.22
78857;BME280;68207;50.078;19.936;2023-04-25T08:11:23;98045.35;;;11.44;67.65
78857;BME280;68207;50.078;19.936;2023-04-25T08:13:48;98046.73;;;11.52;67.27
78857;BME280;68207;50.078;19.936;2023-04-25T08:16:14;98046.57;;;11.58;66.87
78857;BME280;68207;50.078;19.936;2023-04-25T08:18:39;98049.00;;;11.66;66.77
78857;BME280;68207;50.078;19.936;2023-04-25T08:21:04;98049.11;;;11.72;66.32
78857;BME280;68207;50.078;19.936;2023-04-25T08:23:30;98048.86;;;11.71;66.18
78857;BME280;68207;50.078;19.936;2023-04-25T08:25:55;98047.88;;;11.72;66.34
78857;BME280;68207;50.078;19.936;2023-04-25T08:28:21;98046.71;;;11.73;66.39
78857;BME280;68207;50.078;19.936;2023-04-25T08:30:46;98046.39;;;11.74;66.31
78857;BME280;68207;50.078;19.936;2023-04-25T08:33:11;98045.61;;;11.79;66.71
78857;BME280;68207;50.078;19.936;2023-04-25T08:35:36;98047.84;;;11.82;66.35
78857;BME280;68207;50.078;19.936;2023-04-25T08:38:02;98046.20;;;11.83;66.38
78857;BME280;68207;50.078;19.936;2023-04-25T08:40:28;98045.95;;;11.87;66.26
78857;BME280;68207;50.078;19.936;2023-04-25T08:43:00;98051.08;;;11.90;66.06
78857;BME280;68207;50.078;19.936;2023-04-25T08:45:27;98055.28;;;11.90;65.66
78857;BME280;68207;50.078;19.936;2023-04-25T08:47:53;98053.36;;;11.84;65.45
78857;BME280;68207;50.078;19.936;2023-04-25T08:50:19;98052.60;;;11.77;65.30
78857;BME280;68207;50.078;19.936;2023-04-25T08:52:47;98052.33;;;11.71;64.77
78857;BME280;68207;50.078;19.936;2023-04-25T08:55:15;98055.70;;;11.67;64.78
78857;BME280;68207;50.078;19.936;2023-04-25T08:57:42;98058.83;;;11.64;65.03
78857;BME280;68207;50.078;19.936;2023-04-25T09:00:11;98063.02;;;11.68;64.82
78857;BME280;68207;50.078;19.936;2023-04-25T09:02:38;98065.25;;;11.65;64.13
78857;BME280;68207;50.078;19.936;2023-04-25T09:05:05;98067.56;;;11.64;64.62
78857;BME280;68207;50.078;19.936;2023-04-25T09:07:31;98066.33;;;11.65;64.49
78857;BME280;68207;50.078;19.936;2023-04-25T09:09:57;98064.31;;;11.68;64.17
78857;BME280;68207;50.078;19.936;2023-04-25T09:12:24;98068.80;;;11.68;64.18
78857;BME280;68207;50.078;19.936;2023-04-25T09:15:11;98073.27;;;11.66;64.02
78857;BME280;68207;50.078;19.936;2023-04-25T09:17:36;98071.17;;;11.67;64.28
78857;BME280;68207;50.078;19.936;2023-04-25T09:20:11;98067.46;;;11.66;64.45
78857;BME280;68207;50.078;19.936;2023-04-25T09:22:37;98070.77;;;11.68;64.46
78857;BME280;68207;50.078;19.936;2023-04-25T09:25:10;98071.66;;;11.67;64.29
78857;BME280;68207;50.078;19.936;2023-04-25T09:27:36;98072.27;;;11.63;64.33
78857;BME280;68207;50.078;19.936;2023-04-25T09:30:02;98074.05;;;11.60;64.33
78857;BME280;68207;50.078;19.936;2023-04-25T09:32:28;98077.13;;;11.58;64.31
78857;BME280;68207;50.078;19.936;2023-04-25T09:34:55;98076.37;;;11.56;64.60
78857;BME280;68207;50.078;19.936;2023-04-25T09:37:28;98075.88;;;11.53;64.48
78857;BME280;68207;50.078;19.936;2023-04-25T09:39:56;98077.09;;;11.51;64.86
78857;BME280;68207;50.078;19.936;2023-04-25T09:42:23;98077.17;;;11.51;64.85
78857;BME280;68207;50.078;19.936;2023-04-25T09:44:51;98074.34;;;11.57;65.22
78857;BME280;68207;50.078;19.936;2023-04-25T09:47:17;98074.79;;;11.60;64.27
78857;BME280;68207;50.078;19.936;2023-04-25T09:49:43;98069.40;;;11.61;64.14
78857;BME280;68207;50.078;19.936;2023-04-25T09:52:16;98074.19;;;11.63;63.56
78857;BME280;68207;50.078;19.936;2023-04-25T09:54:42;98071.85;;;11.64;63.39
78857;BME280;68207;50.078;19.936;2023-04-25T09:57:15;98067.17;;;11.66;63.49
78857;BME280;68207;50.078;19.936;2023-04-25T09:59:46;98069.98;;;11.68;62.96
78857;BME280;68207;50.078;19.936;2023-04-25T10:02:12;98071.01;;;11.73;62.85
78857;BME280;68207;50.078;19.936;2023-04-25T10:04:38;98067.10;;;11.76;62.55
78857;BME280;68207;50.078;19.936;2023-04-25T10:07:07;98068.13;;;11.77;62.64
78857;BME280;68207;50.078;19.936;2023-04-25T10:09:36;98071.10;;;11.77;62.07
78857;BME280;68207;50.078;19.936;2023-04-25T10:12:03;98075.23;;;11.78;61.77
78857;BME280;68207;50.078;19.936;2023-04-25T10:14:30;98071.44;;;11.79;60.81
78857;BME280;68207;50.078;19.936;2023-04-25T10:16:57;98071.48;;;11.80;60.19
78857;BME280;68207;50.078;19.936;2023-04-25T10:19:23;98073.39;;;11.79;60.06
78857;BME280;68207;50.078;19.936;2023-04-25T10:21:58;98075.33;;;11.80;59.81
78857;BME280;68207;50.078;19.936;2023-04-25T10:24:27;98071.73;;;11.83;60.08
78857;BME280;68207;50.078;19.936;2023-04-25T10:26:53;98060.88;;;11.88;60.15
78857;BME280;68207;50.078;19.936;2023-04-25T10:29:22;98062.60;;;11.91;59.77
78857;BME280;68207;50.078;19.936;2023-04-25T10:31:49;98061.05;;;11.95;59.70
78857;BME280;68207;50.078;19.936;2023-04-25T10:34:15;98057.28;;;11.98;59.66
78857;BME280;68207;50.078;19.936;2023-04-25T10:36:41;98057.66;;;12.00;59.32
78857;BME280;68207;50.078;19.936;2023-04-25T10:39:07;98058.19;;;12.02;59.31
78857;BME280;68207;50.078;19.936;2023-04-25T10:41:47;98057.25;;;12.07;59.64
78857;BME280;68207;50.078;19.936;2023-04-25T10:44:15;98055.45;;;12.16;59.62
78857;BME280;68207;50.078;19.936;2023-04-25T10:46:40;98053.54;;;12.23;59.47
78857;BME280;68207;50.078;19.936;2023-04-25T10:49:07;98056.12;;;12.30;59.25
78857;BME280;68207;50.078;19.936;2023-04-25T10:51:34;98050.75;;;12.40;59.57
78857;BME280;68207;50.078;19.936;2023-04-25T10:54:03;98046.20;;;12.49;59.62
78857;BME280;68207;50.078;19.936;2023-04-25T10:59:17;98047.54;;;12.58;59.10
78857;BME280;68207;50.078;19.936;2023-04-25T11:01:51;98044.02;;;12.63;59.25
78857;BME280;68207;50.078;19.936;2023-04-25T11:04:30;98042.48;;;12.69;58.74
78857;BME280;68207;50.078;19.936;2023-04-25T11:07:19;98040.79;;;12.77;58.81
78857;BME280;68207;50.078;19.936;2023-04-25T11:09:48;98036.86;;;12.89;58.58
78857;BME280;68207;50.078;19.936;2023-04-25T11:12:14;98035.36;;;12.95;57.68
78857;BME280;68207;50.078;19.936;2023-04-25T11:14:40;98034.98;;;13.00;57.50
78857;BME280;68207;50.078;19.936;2023-04-25T11:17:05;98031.45;;;13.07;57.32
78857;BME280;68207;50.078;19.936;2023-04-25T11:19:31;98031.97;;;13.13;56.90
78857;BME280;68207;50.078;19.936;2023-04-25T11:21:58;98039.13;;;13.18;56.56
78857;BME280;68207;50.078;19.936;2023-04-25T11:24:31;98036.09;;;13.19;56.58
78857;BME280;68207;50.078;19.936;2023-04-25T11:26:59;98039.67;;;13.23;56.24
78857;BME280;68207;50.078;19.936;2023-04-25T11:29:28;98033.69;;;13.25;56.32
78857;BME280;68207;50.078;19.936;2023-04-25T11:31:54;98034.00;;;13.31;56.82
78857;BME280;68207;50.078;19.936;2023-04-25T11:34:22;98038.86;;;13.37;57.15
78857;BME280;68207;50.078;19.936;2023-04-25T11:36:48;98039.95;;;13.44;56.85
78857;BME280;68207;50.078;19.936;2023-04-25T11:39:13;98042.79;;;13.50;56.70
78857;BME280;68207;50.078;19.936;2023-04-25T11:41:41;98044.60;;;13.56;56.97
78857;BME280;68207;50.078;19.936;2023-04-25T11:44:06;98043.16;;;13.61;56.72
78857;BME280;68207;50.078;19.936;2023-04-25T11:46:35;98036.64;;;13.62;56.25
78857;BME280;68207;50.078;19.936;2023-04-25T11:49:00;98036.23;;;13.62;55.83
78857;BME280;68207;50.078;19.936;2023-04-25T11:51:25;98039.35;;;13.63;55.75
78857;BME280;68207;50.078;19.936;2023-04-25T11:53:51;98035.55;;;13.61;55.73
78857;BME280;68207;50.078;19.936;2023-04-25T11:56:16;98038.11;;;13.58;55.28
78857;BME280;68207;50.078;19.936;2023-04-25T11:58:58;98038.24;;;13.48;54.13
78857;BME280;68207;50.078;19.936;2023-04-25T12:01:36;98037.07;;;13.38;54.06
78857;BME280;68207;50.078;19.936;2023-04-25T12:04:23;98033.23;;;13.30;54.31
78857;BME280;68207;50.078;19.936;2023-04-25T12:06:54;98033.20;;;13.22;54.47
78857;BME280;68207;50.078;19.936;2023-04-25T12:09:30;98033.86;;;13.13;54.68
78857;BME280;68207;50.078;19.936;2023-04-25T12:11:57;98026.37;;;13.09;54.94
78857;BME280;68207;50.078;19.936;2023-04-25T12:14:32;98028.29;;;13.06;55.16
78857;BME280;68207;50.078;19.936;2023-04-25T12:16:59;98026.66;;;13.04;54.79
78857;BME280;68207;50.078;19.936;2023-04-25T12:19:31;98027.90;;;13.01;54.96
78857;BME280;68207;50.078;19.936;2023-04-25T12:21:58;98028.16;;;12.98;54.81
78857;BME280;68207;50.078;19.936;2023-04-25T12:24:26;98032.59;;;12.97;54.22
78857;BME280;68207;50.078;19.936;2023-04-25T12:27:05;98031.21;;;12.92;54.18
78857;BME280;68207;50.078;19.936;2023-04-25T12:29:34;98032.91;;;12.87;53.36
78857;BME280;68207;50.078;19.936;2023-04-25T12:31:59;98036.48;;;12.82;53.54
78857;BME280;68207;50.078;19.936;2023-04-25T12:34:27;98034.81;;;12.77;54.16
78857;BME280;68207;50.078;19.936;2023-04-25T12:36:52;98036.92;;;12.73;54.47
78857;BME280;68207;50.078;19.936;2023-04-25T12:39:23;98041.05;;;12.69;54.75
78857;BME280;68207;50.078;19.936;2023-04-25T12:41:49;98036.44;;;12.65;54.82
78857;BME280;68207;50.078;19.936;2023-04-25T12:44:14;98038.16;;;12.63;55.03
78857;BME280;68207;50.078;19.936;2023-04-25T12:46:40;98034.76;;;12.63;55.46
78857;BME280;68207;50.078;19.936;2023-04-25T12:49:06;98039.73;;;12.61;55.34